createdAt,value
2019-01-21T00:00:44.177Z,32.95
2019-01-21T00:03:14.679Z,35.90
2019-01-21T00:05:43.095Z,32.05
2019-01-21T00:08:11.646Z,28.12
2019-01-21T00:10:40.179Z,29.37
2019-01-21T00:13:08.710Z,29.82
2019-01-21T00:15:37.421Z,29.12
2019-01-21T00:18:06.010Z,28.70
2019-01-21T00:20:34.579Z,27.15
2019-01-21T00:23:03.514Z,26.05
2019-01-21T00:25:32.383Z,27.62
2019-01-21T00:28:00.949Z,29.45
2019-01-21T00:30:29.830Z,28.45
2019-01-21T00:32:58.526Z,28.60
2019-01-21T00:35:27.421Z,29.20
2019-01-21T00:37:56.331Z,30.23
2019-01-21T00:40:24.875Z,28.25
2019-01-21T00:42:53.466Z,26.05
2019-01-21T00:45:22.043Z,31.87
2019-01-21T00:47:50.655Z,29.65
2019-01-21T00:50:19.215Z,27.30
2019-01-21T00:52:48.141Z,27.62
2019-01-21T00:55:16.694Z,28.40
2019-01-21T00:57:45.282Z,33.80
2019-01-21T01:00:16.792Z,30.80
2019-01-21T01:02:45.424Z,31.68
2019-01-21T01:05:13.994Z,28.25
2019-01-21T01:07:42.819Z,31.12
2019-01-21T01:10:12.182Z,32.42
2019-01-21T01:12:41.422Z,29.45
2019-01-21T01:15:11.151Z,27.25
2019-01-21T01:17:40.115Z,28.52
2019-01-21T01:20:14.808Z,30.23
2019-01-21T01:22:43.422Z,29.37
2019-01-21T01:25:12.031Z,33.02
2019-01-21T01:27:40.678Z,27.65
2019-01-21T01:30:11.062Z,28.70
2019-01-21T01:32:39.678Z,27.75
2019-01-21T01:35:09.391Z,24.85
2019-01-21T01:37:37.982Z,32.23
2019-01-21T01:40:08.891Z,27.30
2019-01-21T01:42:37.494Z,30.57
2019-01-21T01:45:06.571Z,29.30
2019-01-21T01:47:35.816Z,27.58
2019-01-21T01:50:05.150Z,29.75
2019-01-21T01:52:34.017Z,28.07
2019-01-21T01:55:02.846Z,28.98
2019-01-21T01:57:31.458Z,33.60
2019-01-21T02:00:00.387Z,28.98
2019-01-21T02:02:29.484Z,33.55
2019-01-21T02:04:58.035Z,30.95
2019-01-21T02:07:26.610Z,26.48
2019-01-21T02:09:55.539Z,30.25
2019-01-21T02:12:24.114Z,29.60
2019-01-21T02:14:52.969Z,28.87
2019-01-21T02:17:22.211Z,30.97
2019-01-21T02:19:53.076Z,30.60
2019-01-21T02:22:21.698Z,27.80
2019-01-21T02:24:50.614Z,26.27
2019-01-21T02:27:46.103Z,25.82
2019-01-21T02:30:58.129Z,30.52
2019-01-21T02:33:53.586Z,33.70
2019-01-21T02:36:44.877Z,32.90
2019-01-21T02:39:58.151Z,29.07
2019-01-21T02:42:39.835Z,31.62
2019-01-21T02:45:42.678Z,24.67
2019-01-21T02:48:46.915Z,30.45
2019-01-21T02:51:48.094Z,28.92
2019-01-21T02:54:38.938Z,28.83
2019-01-21T02:57:46.373Z,26.48
2019-01-21T03:00:49.979Z,29.52
2019-01-21T03:03:49.555Z,29.50
2019-01-21T03:06:49.930Z,27.80
2019-01-21T03:09:54.856Z,27.13
2019-01-21T03:12:38.723Z,30.00
2019-01-21T03:15:35.885Z,30.60
2019-01-21T03:18:30.110Z,30.68
2019-01-21T03:21:51.921Z,26.73
2019-01-21T03:25:07.427Z,26.70
2019-01-21T03:28:20.500Z,26.12
2019-01-21T03:31:28.287Z,27.82
2019-01-21T03:34:05.321Z,32.98
2019-01-21T03:36:49.428Z,30.00
2019-01-21T03:39:59.106Z,31.25
2019-01-21T03:42:38.062Z,30.52
2019-01-21T03:45:38.295Z,34.63
2019-01-21T03:48:31.972Z,30.17
2019-01-21T03:51:56.054Z,30.82
2019-01-21T03:54:45.006Z,28.32
2019-01-21T03:57:25.679Z,31.85
2019-01-21T04:00:06.372Z,31.48
2019-01-21T04:02:59.951Z,35.45
2019-01-21T04:05:39.891Z,35.00
2019-01-21T04:08:31.535Z,29.65
2019-01-21T04:11:43.274Z,31.57
2019-01-21T04:14:25.534Z,28.40
2019-01-21T04:17:25.404Z,27.75
2019-01-21T04:20:14.402Z,28.00
2019-01-21T04:23:31.357Z,27.58
2019-01-21T04:26:21.238Z,31.12
2019-01-21T04:29:33.378Z,30.08
2019-01-21T04:32:08.953Z,32.58
2019-01-21T04:35:23.522Z,40.95
2019-01-21T04:38:41.831Z,30.23
2019-01-21T04:41:40.096Z,33.67
2019-01-21T04:44:54.510Z,31.48
2019-01-21T04:48:05.080Z,29.67
2019-01-21T04:51:22.549Z,29.25
2019-01-21T04:54:32.115Z,35.03
2019-01-21T04:57:26.338Z,30.02
2019-01-21T05:00:17.827Z,33.67
2019-01-21T05:03:43.995Z,33.60
2019-01-21T05:06:44.765Z,32.28
2019-01-21T05:09:41.687Z,30.62
2019-01-21T05:12:18.062Z,31.00
2019-01-21T05:15:46.290Z,29.57
2019-01-21T05:19:07.049Z,35.23
2019-01-21T05:22:17.473Z,36.28
2019-01-21T05:25:04.156Z,34.70
2019-01-21T05:28:20.684Z,31.35
2019-01-21T05:31:09.784Z,33.23
2019-01-21T05:34:10.518Z,32.05
2019-01-21T05:37:19.421Z,32.30
2019-01-21T05:40:31.617Z,32.03
2019-01-21T05:43:41.707Z,32.95
2019-01-21T05:46:45.830Z,31.17
2019-01-21T05:50:02.031Z,32.08
2019-01-21T05:52:57.857Z,32.15
2019-01-21T05:56:13.499Z,32.53
2019-01-21T05:59:18.354Z,30.72
2019-01-21T06:02:40.410Z,31.23
2019-01-21T06:05:31.736Z,30.05
2019-01-21T06:08:26.627Z,34.58
2019-01-21T06:11:06.653Z,32.40
2019-01-21T06:14:05.938Z,31.85
2019-01-21T06:17:09.490Z,35.33
2019-01-21T06:20:34.810Z,30.48
2019-01-21T06:23:32.562Z,34.05
2019-01-21T06:26:44.776Z,30.37
2019-01-21T06:29:31.479Z,33.20
2019-01-21T06:32:47.862Z,29.42
2019-01-21T06:35:39.527Z,35.95
2019-01-21T06:38:39.494Z,33.40
2019-01-21T06:41:50.822Z,33.50
2019-01-21T06:44:52.250Z,35.17
2019-01-21T06:47:48.620Z,32.63
2019-01-21T06:50:37.878Z,32.45
2019-01-21T06:53:49.067Z,35.13
2019-01-21T06:56:50.675Z,37.50
2019-01-21T07:00:04.478Z,35.00
2019-01-21T07:03:02.866Z,34.85
2019-01-21T07:06:17.307Z,35.10
2019-01-21T07:09:20.698Z,33.92
2019-01-21T07:12:40.496Z,35.92
2019-01-21T07:15:56.992Z,34.83
2019-01-21T07:19:10.951Z,38.20
2019-01-21T07:22:30.105Z,39.55
2019-01-21T07:25:55.911Z,33.20
2019-01-21T07:28:54.342Z,29.70
2019-01-21T07:31:44.078Z,32.03
2019-01-21T07:35:09.384Z,28.17
2019-01-21T07:38:03.602Z,27.10
2019-01-21T07:41:10.171Z,34.90
2019-01-21T07:44:00.780Z,31.12
2019-01-21T07:47:02.955Z,29.80
2019-01-21T07:50:09.622Z,33.75
2019-01-21T07:53:14.551Z,32.45
2019-01-21T07:56:23.651Z,34.90
2019-01-21T07:59:25.834Z,80.60
2019-01-21T08:02:05.924Z,71.10
2019-01-21T08:05:25.574Z,43.83
2019-01-21T08:08:31.039Z,47.13
2019-01-21T08:11:28.303Z,39.13
2019-01-21T08:14:40.578Z,39.42
2019-01-21T08:17:23.222Z,33.08
2019-01-21T08:20:36.915Z,35.35
2019-01-21T08:23:52.667Z,32.95
2019-01-21T08:26:51.326Z,40.92
2019-01-21T08:29:36.522Z,36.98
2019-01-21T08:32:51.018Z,35.55
2019-01-21T08:35:48.343Z,34.38
2019-01-21T08:38:46.097Z,39.30
2019-01-21T08:41:47.261Z,34.92
2019-01-21T08:44:42.427Z,34.27
2019-01-21T08:47:48.925Z,39.30
2019-01-21T08:50:58.874Z,39.75
2019-01-21T08:53:36.579Z,38.50
2019-01-21T08:56:40.179Z,33.88
2019-01-21T08:59:33.886Z,37.63
2019-01-21T09:02:42.878Z,36.23
2019-01-21T09:05:27.255Z,38.75
2019-01-21T09:08:40.578Z,37.67
2019-01-21T09:11:33.050Z,35.00
2019-01-21T09:14:58.650Z,38.95
2019-01-21T09:18:13.784Z,38.83
2019-01-21T09:21:21.114Z,38.17
2019-01-21T09:24:46.690Z,36.48
2019-01-21T09:27:49.973Z,34.95
2019-01-21T09:30:49.131Z,33.90
2019-01-21T09:34:02.667Z,35.65
2019-01-21T09:37:04.199Z,30.17
2019-01-21T09:40:12.562Z,33.80
2019-01-21T09:43:29.216Z,33.50
2019-01-21T09:46:29.179Z,32.80
2019-01-21T09:48:56.895Z,31.65
2019-01-21T09:51:25.838Z,31.55
2019-01-21T09:53:54.802Z,34.03
2019-01-21T09:56:23.702Z,33.45
2019-01-21T09:58:52.565Z,27.35
2019-01-21T10:01:21.178Z,33.38
2019-01-21T10:03:50.038Z,32.45
2019-01-21T10:06:21.710Z,32.28
2019-01-21T10:09:31.693Z,28.98
2019-01-21T10:12:39.668Z,32.38
2019-01-21T10:15:20.733Z,32.73
2019-01-21T10:18:26.570Z,28.70
2019-01-21T10:21:24.505Z,31.55
2019-01-21T10:24:40.767Z,29.07
2019-01-21T10:27:36.930Z,28.10
2019-01-21T10:30:20.879Z,30.23
2019-01-21T10:33:44.881Z,31.25
2019-01-21T10:37:06.145Z,29.98
2019-01-21T10:40:16.419Z,32.58
2019-01-21T10:43:16.198Z,29.85
2019-01-21T10:46:34.582Z,31.95
2019-01-21T10:49:47.421Z,33.35
2019-01-21T10:52:59.810Z,31.52
2019-01-21T10:55:48.550Z,32.08
2019-01-21T10:58:44.930Z,29.57
2019-01-21T11:01:33.469Z,31.80
2019-01-21T11:04:19.476Z,30.30
2019-01-21T11:07:21.366Z,31.33
2019-01-21T11:10:05.387Z,27.80
2019-01-21T11:13:03.996Z,30.32
2019-01-21T11:16:05.639Z,29.63
2019-01-21T11:19:22.030Z,27.40
2019-01-21T11:22:40.182Z,29.60
2019-01-21T11:25:47.571Z,69.40
2019-01-21T11:28:26.504Z,31.15
2019-01-21T11:31:25.474Z,31.00
2019-01-21T11:34:48.151Z,30.17
2019-01-21T11:38:07.694Z,29.37
2019-01-21T11:41:09.227Z,28.47
2019-01-21T11:44:18.855Z,29.95
2019-01-21T11:47:45.198Z,29.98
2019-01-21T11:50:41.924Z,30.12
2019-01-21T11:53:37.335Z,27.58
2019-01-21T11:56:41.858Z,27.48
2019-01-21T11:59:34.103Z,30.50
2019-01-21T12:02:31.453Z,33.23
2019-01-21T12:05:39.663Z,27.67
2019-01-21T12:08:35.806Z,30.10
2019-01-21T12:11:44.376Z,27.87
2019-01-21T12:15:12.776Z,29.15
2019-01-21T12:18:27.919Z,26.15
2019-01-21T12:21:49.419Z,30.10
2019-01-21T12:24:45.222Z,31.57
2019-01-21T12:27:45.007Z,29.63
2019-01-21T12:30:49.038Z,33.80
2019-01-21T12:34:04.274Z,35.60
2019-01-21T12:37:10.598Z,39.23
2019-01-21T12:40:14.662Z,35.73
2019-01-21T12:43:26.622Z,33.13
2019-01-21T12:46:23.467Z,28.95
2019-01-21T12:49:02.710Z,28.30
2019-01-21T12:51:59.238Z,26.75
2019-01-21T12:54:45.782Z,28.80
2019-01-21T12:58:04.410Z,32.85
2019-01-21T13:01:16.757Z,34.65
2019-01-21T13:04:23.039Z,27.17
2019-01-21T13:07:31.998Z,30.48
2019-01-21T13:10:45.422Z,27.70
2019-01-21T13:13:51.235Z,29.32
2019-01-21T13:16:45.591Z,26.20
2019-01-21T13:19:47.963Z,29.25
2019-01-21T13:23:09.998Z,37.55
2019-01-21T13:26:12.478Z,31.30
2019-01-21T13:29:04.958Z,28.42
2019-01-21T13:31:52.930Z,27.27
2019-01-21T13:35:02.002Z,23.05
2019-01-21T13:37:53.666Z,28.00
2019-01-21T13:40:50.575Z,26.55
2019-01-21T13:44:25.794Z,26.87
2019-01-21T13:47:44.058Z,32.13
2019-01-21T13:50:20.973Z,25.10
2019-01-21T13:53:58.466Z,28.77
2019-01-21T13:56:56.214Z,24.98
2019-01-21T14:00:17.386Z,29.30
2019-01-21T14:02:51.246Z,27.10
2019-01-21T14:05:32.210Z,23.30
2019-01-21T14:08:41.530Z,29.55
2019-01-21T14:11:38.640Z,32.35
2019-01-21T14:14:31.288Z,13.25
2019-01-21T14:17:36.385Z,22.55
2019-01-21T14:20:16.814Z,26.87
2019-01-21T14:23:12.331Z,23.98
2019-01-21T14:26:28.542Z,28.57
2019-01-21T14:29:23.739Z,27.73
2019-01-21T14:32:15.710Z,27.30
2019-01-21T14:35:29.622Z,21.27
2019-01-21T14:38:14.726Z,25.45
2019-01-21T14:41:26.383Z,25.30
2019-01-21T14:44:49.039Z,22.32
2019-01-21T14:47:29.622Z,23.45
2019-01-21T14:50:33.990Z,25.50
2019-01-21T14:53:55.447Z,26.35
2019-01-21T14:56:58.030Z,28.35
2019-01-21T14:59:56.741Z,26.95
2019-01-21T15:03:10.026Z,26.90
2019-01-21T15:06:16.517Z,27.02
2019-01-21T15:09:04.388Z,25.02
2019-01-21T15:12:14.699Z,25.12
2019-01-21T15:15:08.667Z,26.42
2019-01-21T15:17:53.000Z,27.32
2019-01-21T15:20:49.275Z,27.32
2019-01-21T15:23:50.893Z,26.87
2019-01-21T15:26:25.398Z,30.35
2019-01-21T15:29:21.440Z,28.38
2019-01-21T15:32:12.846Z,28.55
2019-01-21T15:35:07.772Z,26.77
2019-01-21T15:38:20.173Z,27.27
2019-01-21T15:41:26.691Z,25.72
2019-01-21T15:44:36.142Z,21.85
2019-01-21T15:47:54.945Z,26.73
2019-01-21T15:50:57.677Z,25.12
2019-01-21T15:53:45.462Z,26.73
2019-01-21T15:56:40.782Z,25.50
2019-01-21T15:59:33.826Z,29.75
2019-01-21T16:02:24.391Z,27.58
2019-01-21T16:05:30.534Z,31.73
2019-01-21T16:08:23.567Z,29.82
2019-01-21T16:11:21.558Z,25.70
2019-01-21T16:13:54.098Z,25.02
2019-01-21T16:16:56.982Z,26.93
2019-01-21T16:19:49.492Z,28.95
2019-01-21T16:22:43.198Z,25.95
2019-01-21T16:25:37.766Z,24.30
2019-01-21T16:28:32.396Z,26.07
2019-01-21T16:31:44.378Z,26.87
2019-01-21T16:34:37.529Z,27.67
2019-01-21T16:37:18.387Z,28.40
2019-01-21T16:40:18.408Z,27.87
2019-01-21T16:42:47.614Z,27.90
2019-01-21T16:45:16.802Z,28.65
2019-01-21T16:47:45.790Z,30.85
2019-01-21T16:50:14.351Z,31.87
2019-01-21T16:52:43.280Z,32.58
2019-01-21T16:55:12.171Z,28.52
2019-01-21T16:57:40.712Z,28.73
2019-01-21T17:00:09.540Z,29.48
2019-01-21T17:02:38.090Z,35.23
2019-01-21T17:05:07.626Z,33.92
2019-01-21T17:07:36.827Z,37.03
2019-01-21T17:10:06.814Z,34.40
2019-01-21T17:12:35.903Z,33.70
2019-01-21T17:15:05.795Z,35.30
2019-01-21T17:17:34.740Z,34.83
2019-01-21T17:20:03.583Z,44.20
2019-01-21T17:22:32.587Z,38.70
2019-01-21T17:25:01.510Z,40.48
2019-01-21T17:27:30.307Z,40.05
2019-01-21T17:29:59.513Z,40.63
2019-01-21T17:32:28.314Z,39.33
2019-01-21T17:34:57.003Z,41.65
2019-01-21T17:37:26.895Z,39.45
2019-01-21T17:39:55.506Z,39.55
2019-01-21T17:42:24.458Z,39.10
2019-01-21T17:44:53.031Z,34.70
2019-01-21T17:47:21.645Z,35.60
2019-01-21T17:49:50.522Z,33.35
2019-01-21T17:52:19.089Z,33.65
2019-01-21T17:54:47.668Z,33.78
2019-01-21T17:57:16.269Z,31.30
2019-01-21T17:59:45.135Z,31.73
2019-01-21T18:02:14.478Z,35.48
2019-01-21T18:04:43.974Z,35.88
2019-01-21T18:07:12.547Z,31.33
2019-01-21T18:09:41.463Z,33.80
2019-01-21T18:12:10.023Z,33.78
2019-01-21T18:14:38.606Z,30.88
2019-01-21T18:17:07.521Z,39.00
2019-01-21T18:19:36.401Z,35.70
2019-01-21T18:22:05.009Z,37.65
2019-01-21T18:24:33.954Z,37.15
2019-01-21T18:27:02.839Z,39.65
2019-01-21T18:29:31.658Z,37.73
2019-01-21T18:32:00.558Z,34.25
2019-01-21T18:34:29.095Z,38.45
2019-01-21T18:36:58.006Z,36.68
2019-01-21T18:39:26.574Z,34.53
2019-01-21T18:41:55.435Z,39.15
2019-01-21T18:44:24.393Z,38.20
2019-01-21T18:46:53.288Z,38.13
2019-01-21T18:49:22.921Z,35.60
2019-01-21T18:51:51.971Z,35.48
2019-01-21T18:54:20.534Z,42.10
2019-01-21T18:56:49.562Z,38.38
2019-01-21T18:59:18.562Z,54.18
2019-01-21T19:01:47.478Z,44.53
2019-01-21T19:04:16.132Z,48.30
2019-01-21T19:06:44.710Z,52.43
2019-01-21T19:09:13.274Z,43.68
2019-01-21T19:11:42.195Z,54.88
2019-01-21T19:14:10.752Z,50.03
2019-01-21T19:16:39.341Z,43.23
2019-01-21T19:19:09.436Z,34.70
2019-01-21T19:21:38.135Z,38.63
2019-01-21T19:24:06.742Z,40.12
2019-01-21T19:26:35.543Z,40.03
2019-01-21T19:29:04.151Z,32.08
2019-01-21T19:31:32.918Z,29.90
2019-01-21T19:34:01.466Z,28.65
2019-01-21T19:36:30.046Z,31.52
2019-01-21T19:38:59.031Z,38.05
2019-01-21T19:41:28.018Z,29.45
2019-01-21T19:43:57.086Z,34.23
2019-01-21T19:46:25.955Z,30.55
2019-01-21T19:48:54.882Z,32.90
2019-01-21T19:51:23.498Z,30.08
2019-01-21T19:53:52.098Z,31.65
2019-01-21T19:56:20.674Z,28.25
2019-01-21T19:58:49.599Z,29.72
2019-01-21T20:01:18.458Z,41.92
2019-01-21T20:03:47.282Z,28.38
2019-01-21T20:06:16.161Z,32.28
2019-01-21T20:08:44.735Z,31.40
2019-01-21T20:11:13.346Z,33.13
2019-01-21T20:13:41.888Z,33.90
2019-01-21T20:16:11.109Z,33.85
2019-01-21T20:18:39.901Z,33.42
2019-01-21T20:21:08.455Z,39.33
2019-01-21T20:23:37.786Z,34.78
2019-01-21T20:26:06.626Z,39.48
2019-01-21T20:28:35.226Z,36.50
2019-01-21T20:31:03.829Z,33.25
2019-01-21T20:33:32.729Z,33.98
2019-01-21T20:36:01.291Z,30.65
2019-01-21T20:38:30.202Z,30.32
2019-01-21T20:40:59.403Z,28.57
2019-01-21T20:43:27.956Z,34.13
2019-01-21T20:45:56.558Z,37.23
2019-01-21T20:48:25.673Z,33.98
2019-01-21T20:50:54.286Z,41.37
2019-01-21T20:53:23.292Z,38.33
2019-01-21T20:55:52.547Z,34.40
2019-01-21T20:58:21.147Z,37.60
2019-01-21T21:00:50.005Z,40.52
2019-01-21T21:03:18.578Z,42.33
2019-01-21T21:05:47.843Z,50.70
2019-01-21T21:08:17.024Z,45.52
2019-01-21T21:10:45.900Z,51.98
2019-01-21T21:13:14.782Z,52.25
2019-01-21T21:15:43.658Z,48.17
2019-01-21T21:18:13.083Z,50.98
2019-01-21T21:20:41.639Z,43.15
2019-01-21T21:23:10.552Z,40.15
2019-01-21T21:25:39.770Z,37.17
2019-01-21T21:28:08.433Z,41.50
2019-01-21T21:30:36.998Z,35.88
2019-01-21T21:33:06.410Z,35.68
2019-01-21T21:35:35.520Z,41.95
2019-01-21T21:38:04.109Z,40.15
2019-01-21T21:40:32.682Z,41.25
2019-01-21T21:43:01.854Z,40.88
2019-01-21T21:45:30.794Z,38.75
2019-01-21T21:48:01.265Z,38.40
2019-01-21T21:50:31.881Z,41.68
2019-01-21T21:53:00.803Z,43.73
2019-01-21T21:55:29.869Z,40.67
2019-01-21T21:57:58.761Z,40.45
2019-01-21T22:00:28.146Z,41.92
2019-01-21T22:02:57.321Z,41.92
2019-01-21T22:05:25.911Z,38.35
2019-01-21T22:07:54.703Z,40.75
2019-01-21T22:10:25.150Z,44.38
2019-01-21T22:12:53.775Z,48.98
2019-01-21T22:15:22.798Z,48.92
2019-01-21T22:17:51.686Z,47.43
2019-01-21T22:20:21.771Z,40.92
2019-01-21T22:22:51.003Z,38.70
2019-01-21T22:25:20.266Z,38.78
2019-01-21T22:27:49.103Z,40.73
2019-01-21T22:30:22.835Z,37.55
2019-01-21T22:32:51.494Z,37.35
2019-01-21T22:35:20.372Z,33.95
2019-01-21T22:37:49.579Z,37.80
2019-01-21T22:40:20.107Z,34.83
2019-01-21T22:42:48.662Z,33.28
2019-01-21T22:45:17.938Z,33.28
2019-01-21T22:47:47.266Z,31.60
2019-01-21T22:50:16.350Z,36.42
2019-01-21T22:52:44.943Z,36.60
2019-01-21T22:55:14.401Z,34.05
2019-01-21T22:57:43.083Z,37.17
2019-01-21T23:00:23.110Z,32.03
2019-01-21T23:02:51.646Z,33.35
2019-01-21T23:05:20.250Z,34.80
2019-01-21T23:07:49.686Z,37.45
2019-01-21T23:10:18.774Z,31.73
2019-01-21T23:12:47.335Z,32.70
2019-01-21T23:15:15.937Z,36.98
2019-01-21T23:20:22.119Z,31.70
2019-01-21T23:22:51.019Z,34.53
2019-01-21T23:25:19.566Z,32.35
2019-01-21T23:27:48.539Z,36.73
2019-01-21T23:30:17.167Z,36.40
2019-01-21T23:32:45.770Z,36.08
2019-01-21T23:35:14.333Z,36.30
2019-01-21T23:37:42.909Z,35.43
2019-01-21T23:40:11.702Z,40.85
2019-01-21T23:42:40.266Z,39.90
2019-01-21T23:45:08.910Z,42.60
2019-01-21T23:47:37.775Z,35.92
2019-01-21T23:50:07.190Z,39.25
2019-01-21T23:52:35.730Z,37.93
2019-01-21T23:55:05.007Z,38.83
2019-01-21T23:57:33.926Z,35.25
